createdAt,value
2019-06-08T00:01:31.476Z,73.40
2019-06-08T00:04:00.105Z,73.49
2019-06-08T00:06:29.149Z,73.15
2019-06-08T00:08:58.905Z,72.78
2019-06-08T00:11:30.991Z,73.33
2019-06-08T00:13:59.632Z,73.32
2019-06-08T00:16:28.299Z,73.25
2019-06-08T00:18:57.197Z,73.39
2019-06-08T00:21:27.086Z,73.34
2019-06-08T00:23:58.925Z,73.41
2019-06-08T00:26:27.589Z,73.76
2019-06-08T00:28:56.334Z,73.54
2019-06-08T00:31:25.102Z,73.57
2019-06-08T00:33:56.669Z,72.88
2019-06-08T00:36:25.314Z,72.73
2019-06-08T00:38:55.258Z,72.39
2019-06-08T00:41:25.281Z,72.06
2019-06-08T00:43:57.511Z,72.10
2019-06-08T00:46:27.535Z,72.59
2019-06-08T00:48:59.342Z,72.68
2019-06-08T00:51:29.702Z,72.81
2019-06-08T00:53:58.504Z,73.07
2019-06-08T00:56:27.208Z,73.29
2019-06-08T00:58:55.836Z,73.47
2019-06-08T01:01:26.407Z,73.34
2019-06-08T01:03:55.089Z,73.59
2019-06-08T01:06:25.605Z,73.33
2019-06-08T01:08:54.329Z,72.93
2019-06-08T01:11:23.019Z,72.63
2019-06-08T01:13:51.611Z,73.16
2019-06-08T01:16:27.045Z,73.18
2019-06-08T01:18:59.122Z,73.39
2019-06-08T01:21:27.867Z,73.29
2019-06-08T01:23:56.486Z,73.54
2019-06-08T01:26:31.207Z,73.52
2019-06-08T01:29:03.079Z,73.14
2019-06-08T01:31:31.752Z,72.70
2019-06-08T01:34:06.738Z,72.19
2019-06-08T01:36:35.419Z,72.04
2019-06-08T01:39:07.812Z,72.26
2019-06-08T01:41:36.514Z,72.27
2019-06-08T01:44:05.438Z,72.08
2019-06-08T01:46:36.821Z,71.92
2019-06-08T01:49:06.468Z,71.54
2019-06-08T01:51:37.891Z,71.39
2019-06-08T01:54:06.625Z,71.14
2019-06-08T01:56:35.531Z,70.81
2019-06-08T01:59:05.763Z,70.47
2019-06-08T02:01:36.152Z,70.20
2019-06-08T02:04:04.889Z,69.99
2019-06-08T02:06:34.904Z,69.29
2019-06-08T02:09:03.891Z,68.94
2019-06-08T02:11:34.888Z,68.53
2019-06-08T02:14:03.892Z,67.83
2019-06-08T02:16:33.357Z,67.41
2019-06-08T02:19:02.034Z,67.26
2019-06-08T02:21:30.904Z,67.38
2019-06-08T02:23:59.589Z,67.11
2019-06-08T02:26:30.950Z,66.85
2019-06-08T02:29:00.056Z,66.74
2019-06-08T02:31:32.869Z,66.24
2019-06-08T02:34:02.678Z,66.22
2019-06-08T02:36:38.034Z,66.24
2019-06-08T02:39:07.563Z,66.20
2019-06-08T02:41:40.028Z,65.99
2019-06-08T02:44:08.894Z,66.33
2019-06-08T02:46:40.826Z,66.71
2019-06-08T02:49:09.539Z,66.53
2019-06-08T02:51:38.474Z,66.39
2019-06-08T02:54:07.250Z,66.52
2019-06-08T02:56:39.317Z,66.51
2019-06-08T02:59:08.285Z,66.29
2019-06-08T03:01:40.968Z,66.13
2019-06-08T03:04:09.684Z,66.02
2019-06-08T03:06:40.903Z,66.13
2019-06-08T03:09:09.079Z,65.73
2019-06-08T03:11:41.414Z,65.65
2019-06-08T03:14:10.134Z,65.10
2019-06-08T03:16:41.488Z,64.81
2019-06-08T03:19:21.711Z,64.44
2019-06-08T03:21:42.407Z,64.00
2019-06-08T03:24:14.053Z,63.50
2019-06-08T03:26:44.161Z,62.92
2019-06-08T03:29:13.285Z,62.36
2019-06-08T03:31:51.233Z,62.19
2019-06-08T03:34:12.378Z,60.79
2019-06-08T03:36:54.099Z,60.65
2019-06-08T03:39:17.476Z,60.76
2019-06-08T03:41:46.148Z,61.13
2019-06-08T03:44:14.796Z,61.48
2019-06-08T03:46:45.932Z,62.07
2019-06-08T03:49:16.691Z,62.09
2019-06-08T03:51:49.026Z,60.77
2019-06-08T03:54:20.650Z,60.05
2019-06-08T03:59:36.073Z,60.42
2019-06-08T04:02:04.897Z,59.86
2019-06-08T04:04:33.571Z,59.41
2019-06-08T04:07:02.494Z,58.76
2019-06-08T04:09:31.116Z,58.45
2019-06-08T04:12:02.577Z,58.64
2019-06-08T04:14:31.274Z,59.79
2019-06-08T04:16:59.935Z,59.67
2019-06-08T04:19:28.626Z,59.27
2019-06-08T04:22:00.588Z,59.60
2019-06-08T04:24:29.231Z,58.28
2019-06-08T04:27:01.085Z,59.51
2019-06-08T04:29:29.736Z,60.38
2019-06-08T04:31:58.646Z,59.27
2019-06-08T04:34:27.400Z,59.43
2019-06-08T04:36:57.426Z,59.92
2019-06-08T04:39:26.355Z,58.63
2019-06-08T04:41:56.524Z,59.36
2019-06-08T04:44:25.529Z,59.84
2019-06-08T04:46:54.239Z,59.88
2019-06-08T04:49:24.391Z,60.46
2019-06-08T04:51:54.429Z,61.27
2019-06-08T04:54:23.990Z,60.79
2019-06-08T04:56:52.679Z,61.48
2019-06-08T04:59:21.453Z,61.81
2019-06-08T05:01:51.295Z,61.73
2019-06-08T05:04:19.956Z,61.60
2019-06-08T05:06:49.815Z,61.61
2019-06-08T05:09:21.700Z,61.50
2019-06-08T05:11:51.713Z,61.34
2019-06-08T05:14:21.494Z,62.83
2019-06-08T05:16:50.238Z,62.00
2019-06-08T05:19:18.943Z,62.84
2019-06-08T05:21:50.033Z,63.62
2019-06-08T05:24:20.224Z,64.32
2019-06-08T05:26:52.597Z,64.44
2019-06-08T05:29:21.296Z,64.28
2019-06-08T05:31:49.988Z,64.48
2019-06-08T05:34:19.759Z,63.70
2019-06-08T05:36:49.778Z,63.70
2019-06-08T05:39:18.947Z,63.91
2019-06-08T05:41:49.808Z,63.75
2019-06-08T05:44:19.580Z,62.52
2019-06-08T05:46:50.000Z,63.31
2019-06-08T05:49:20.522Z,62.34
2019-06-08T05:51:50.111Z,61.62
2019-06-08T05:54:20.629Z,61.44
2019-06-08T05:56:50.622Z,60.92
2019-06-08T05:59:20.402Z,61.45
2019-06-08T06:01:51.001Z,61.57
2019-06-08T06:04:21.250Z,61.63
2019-06-08T06:06:53.154Z,61.64
2019-06-08T06:09:22.329Z,61.27
2019-06-08T06:11:51.255Z,61.71
2019-06-08T06:14:21.666Z,61.22
2019-06-08T06:16:51.302Z,61.75
2019-06-08T06:19:20.061Z,60.24
2019-06-08T06:21:51.691Z,61.05
2019-06-08T06:24:21.705Z,59.89
2019-06-08T06:26:51.685Z,59.82
2019-06-08T06:29:20.525Z,60.00
2019-06-08T06:31:49.779Z,60.32
2019-06-08T06:34:18.591Z,59.65
2019-06-08T06:36:50.090Z,59.00
2019-06-08T06:39:21.562Z,59.55
2019-06-08T06:41:50.199Z,60.83
2019-06-08T06:44:21.196Z,60.77
2019-06-08T06:46:52.732Z,60.64
2019-06-08T06:49:21.369Z,60.34
2019-06-08T06:51:50.552Z,60.42
2019-06-08T06:54:25.649Z,60.23
2019-06-08T06:56:54.387Z,59.90
2019-06-08T06:59:23.135Z,60.49
2019-06-08T07:01:55.784Z,61.11
2019-06-08T07:04:22.391Z,61.71
2019-06-08T07:06:52.238Z,61.47
2019-06-08T07:09:20.888Z,61.37
2019-06-08T07:11:57.611Z,61.91
2019-06-08T07:14:29.170Z,60.60
2019-06-08T07:16:58.267Z,61.06
2019-06-08T07:19:29.882Z,61.66
2019-06-08T07:21:58.634Z,61.36
2019-06-08T07:24:29.267Z,60.93
2019-06-08T07:26:58.789Z,61.29
2019-06-08T07:29:27.573Z,60.48
2019-06-08T07:31:56.209Z,60.38
2019-06-08T07:34:24.876Z,60.35
2019-06-08T07:36:55.547Z,60.41
2019-06-08T07:39:28.690Z,60.76
2019-06-08T07:41:57.601Z,59.95
2019-06-08T07:44:32.425Z,60.17
2019-06-08T07:47:01.149Z,60.26
2019-06-08T07:49:29.765Z,60.49
2019-06-08T07:52:09.452Z,61.56
2019-06-08T07:54:30.673Z,61.43
2019-06-08T07:56:59.621Z,62.14
2019-06-08T07:59:28.251Z,61.21
2019-06-08T08:01:58.330Z,61.92
2019-06-08T08:04:27.203Z,61.26
2019-06-08T08:06:56.708Z,60.28
2019-06-08T08:09:26.807Z,61.14
2019-06-08T08:11:55.468Z,60.95
2019-06-08T08:14:24.474Z,60.93
2019-06-08T08:16:53.263Z,60.96
2019-06-08T08:19:22.690Z,60.68
2019-06-08T08:22:03.124Z,59.39
2019-06-08T08:24:28.056Z,59.42
2019-06-08T08:27:02.072Z,60.54
2019-06-08T08:29:31.356Z,61.52
2019-06-08T08:32:01.791Z,61.68
2019-06-08T08:34:29.959Z,61.11
2019-06-08T08:37:04.009Z,61.51
2019-06-08T08:39:29.101Z,62.41
2019-06-08T08:42:04.367Z,62.29
2019-06-08T08:44:29.463Z,61.83
2019-06-08T08:47:00.551Z,62.82
2019-06-08T08:49:28.511Z,63.87
2019-06-08T08:52:00.047Z,65.91
2019-06-08T08:54:29.776Z,65.95
2019-06-08T08:57:04.516Z,65.81
2019-06-08T08:59:32.039Z,66.02
2019-06-08T09:02:02.788Z,65.09
2019-06-08T09:04:31.348Z,63.50
2019-06-08T09:07:05.546Z,62.29
2019-06-08T09:09:31.711Z,59.38
2019-06-08T09:12:04.245Z,57.15
2019-06-08T09:14:31.852Z,57.02
2019-06-08T09:17:02.176Z,57.25
2019-06-08T09:19:30.902Z,58.00
2019-06-08T09:22:02.298Z,57.96
2019-06-08T09:24:29.975Z,57.20
2019-06-08T09:27:00.956Z,55.97
2019-06-08T09:29:29.369Z,54.54
2019-06-08T09:32:00.448Z,54.72
2019-06-08T09:34:28.673Z,54.07
2019-06-08T09:37:00.120Z,54.46
2019-06-08T09:39:28.665Z,53.53
2019-06-08T09:42:00.453Z,53.21
2019-06-08T09:44:28.194Z,52.61
2019-06-08T09:47:02.775Z,54.28
2019-06-08T09:49:28.865Z,54.81
2019-06-08T09:52:00.404Z,52.20
2019-06-08T09:54:29.070Z,50.49
2019-06-08T09:57:00.944Z,49.53
2019-06-08T09:59:28.588Z,46.28
2019-06-08T10:02:05.080Z,44.77
2019-06-08T10:04:29.185Z,45.00
2019-06-08T10:07:00.163Z,45.50
2019-06-08T10:09:28.849Z,46.61
2019-06-08T10:11:59.576Z,47.08
2019-06-08T10:14:29.506Z,48.07
2019-06-08T10:17:00.591Z,48.34
2019-06-08T10:19:28.658Z,48.63
2019-06-08T10:21:58.782Z,48.85
2019-06-08T10:24:27.451Z,49.95
2019-06-08T10:26:57.176Z,50.29
2019-06-08T10:29:26.087Z,49.81
2019-06-08T10:31:55.176Z,50.51
2019-06-08T10:34:27.327Z,50.94
2019-06-08T10:37:00.723Z,51.74
2019-06-08T10:39:28.340Z,51.51
2019-06-08T10:41:59.851Z,51.19
2019-06-08T10:44:28.347Z,51.83
2019-06-08T10:47:00.533Z,52.56
2019-06-08T10:49:28.602Z,52.88
2019-06-08T10:52:01.555Z,51.11
2019-06-08T10:54:29.344Z,52.44
2019-06-08T10:57:00.372Z,51.47
2019-06-08T10:59:28.994Z,48.59
2019-06-08T11:02:01.021Z,47.91
2019-06-08T11:04:29.428Z,47.49
2019-06-08T11:07:05.655Z,49.25
2019-06-08T11:09:33.129Z,48.52
2019-06-08T11:12:03.367Z,47.96
2019-06-08T11:14:32.741Z,49.08
2019-06-08T11:17:02.625Z,48.75
2019-06-08T11:19:31.713Z,46.68
2019-06-08T11:22:04.999Z,43.99
2019-06-08T11:24:33.126Z,44.07
2019-06-08T11:27:03.411Z,43.31
2019-06-08T11:29:38.366Z,44.29
2019-06-08T11:32:09.295Z,45.18
2019-06-08T11:34:37.675Z,44.30
2019-06-08T11:37:13.090Z,42.69
2019-06-08T11:39:42.515Z,43.15
2019-06-08T11:42:19.103Z,44.15
2019-06-08T11:44:50.884Z,42.67
2019-06-08T11:47:20.609Z,42.54
2019-06-08T11:49:50.062Z,43.66
2019-06-08T11:52:18.814Z,41.29
2019-06-08T11:54:48.456Z,41.49
2019-06-08T11:57:17.795Z,43.12
2019-06-08T11:59:48.480Z,44.32
2019-06-08T12:02:20.320Z,45.31
2019-06-08T12:04:52.229Z,44.30
2019-06-08T12:07:22.390Z,43.33
2019-06-08T12:09:51.085Z,43.71
2019-06-08T12:12:21.321Z,44.42
2019-06-08T12:14:51.928Z,45.89
2019-06-08T12:17:24.335Z,47.60
2019-06-08T12:19:54.592Z,47.82
2019-06-08T12:22:23.485Z,49.38
2019-06-08T12:24:54.733Z,49.56
2019-06-08T12:27:33.093Z,49.49
2019-06-08T12:29:55.616Z,48.93
2019-06-08T12:32:24.555Z,49.00
2019-06-08T12:34:54.738Z,48.44
2019-06-08T12:37:24.967Z,49.35
2019-06-08T12:39:53.628Z,51.21
2019-06-08T12:42:24.984Z,51.55
2019-06-08T12:44:53.959Z,51.35
2019-06-08T12:47:26.674Z,51.51
2019-06-08T12:49:53.257Z,51.83
2019-06-08T12:52:22.448Z,47.56
2019-06-08T12:55:00.085Z,46.52
2019-06-08T12:57:23.008Z,46.23
2019-06-08T12:59:52.857Z,45.07
2019-06-08T13:02:28.940Z,43.60
2019-06-08T13:04:58.131Z,41.84
2019-06-08T13:07:28.156Z,41.46
2019-06-08T13:09:58.999Z,39.95
2019-06-08T13:12:28.903Z,38.52
2019-06-08T13:14:58.295Z,38.04
2019-06-08T13:17:28.016Z,36.85
2019-06-08T13:19:58.156Z,36.96
2019-06-08T13:22:29.041Z,36.62
2019-06-08T13:25:10.271Z,37.39
2019-06-08T13:27:28.234Z,37.49
2019-06-08T13:29:57.754Z,31.41
2019-06-08T13:32:29.401Z,31.28
2019-06-08T13:34:58.617Z,31.22
2019-06-08T13:37:27.646Z,29.29
2019-06-08T13:39:59.035Z,27.01
2019-06-08T13:42:27.982Z,27.82
2019-06-08T13:44:59.019Z,26.78
2019-06-08T13:47:28.646Z,26.94
2019-06-08T13:49:58.777Z,28.91
2019-06-08T13:52:28.805Z,29.23
2019-06-08T13:54:58.346Z,27.90
2019-06-08T13:57:27.208Z,26.08
2019-06-08T13:59:57.852Z,27.79
2019-06-08T14:02:29.083Z,26.06
2019-06-08T14:04:59.115Z,27.38
2019-06-08T14:07:34.290Z,24.46
2019-06-08T14:10:00.783Z,24.15
2019-06-08T14:12:30.938Z,22.95
2019-06-08T14:15:03.759Z,25.05
2019-06-08T14:17:32.442Z,25.67
2019-06-08T14:20:02.667Z,25.60
2019-06-08T14:22:31.653Z,24.17
2019-06-08T14:25:00.594Z,25.49
2019-06-08T14:27:33.546Z,24.91
2019-06-08T14:30:02.654Z,21.97
2019-06-08T14:32:31.492Z,22.11
2019-06-08T14:35:02.829Z,22.63
2019-06-08T14:37:30.616Z,21.47
2019-06-08T14:39:59.318Z,21.53
2019-06-08T14:42:31.717Z,19.86
2019-06-08T14:45:02.111Z,21.54
2019-06-08T14:47:32.565Z,23.57
2019-06-08T14:50:02.661Z,21.79
2019-06-08T14:52:32.089Z,23.18
2019-06-08T14:55:00.746Z,25.07
2019-06-08T14:57:30.979Z,24.68
2019-06-08T15:00:08.419Z,25.28
2019-06-08T15:02:37.921Z,26.71
2019-06-08T15:05:08.212Z,29.33
2019-06-08T15:07:38.856Z,30.18
2019-06-08T15:10:10.093Z,31.81
2019-06-08T15:12:38.993Z,28.58
2019-06-08T15:15:10.862Z,30.28
2019-06-08T15:17:38.125Z,31.47
2019-06-08T15:20:08.857Z,28.83
2019-06-08T15:22:38.946Z,30.33
2019-06-08T15:25:11.007Z,29.32
2019-06-08T15:27:38.951Z,27.70
2019-06-08T15:30:10.290Z,25.50
2019-06-08T15:32:38.982Z,27.07
2019-06-08T15:35:13.608Z,30.03
2019-06-08T15:37:49.085Z,32.17
2019-06-08T15:40:17.877Z,29.86
2019-06-08T15:42:47.970Z,30.06
2019-06-08T15:45:18.285Z,30.97
2019-06-08T15:47:53.024Z,32.99
2019-06-08T15:50:24.219Z,33.05
2019-06-08T15:52:52.848Z,34.81
2019-06-08T15:55:22.860Z,33.00
2019-06-08T15:57:52.261Z,34.09
2019-06-08T16:00:24.803Z,35.98
2019-06-08T16:02:58.497Z,38.53
2019-06-08T16:05:27.816Z,37.97
2019-06-08T16:07:56.823Z,36.61
2019-06-08T16:10:28.384Z,32.90
2019-06-08T16:12:57.010Z,31.53
2019-06-08T16:15:26.863Z,32.68
2019-06-08T16:17:55.629Z,34.57
2019-06-08T16:20:27.534Z,36.83
2019-06-08T16:22:57.594Z,38.37
2019-06-08T16:25:29.739Z,40.86
2019-06-08T16:28:02.859Z,42.69
2019-06-08T16:30:33.152Z,44.31
2019-06-08T16:33:01.788Z,45.33
2019-06-08T16:35:31.768Z,44.44
2019-06-08T16:38:00.970Z,45.25
2019-06-08T16:40:34.011Z,45.82
2019-06-08T16:43:03.047Z,46.35
2019-06-08T16:45:33.165Z,47.01
2019-06-08T16:48:03.386Z,47.96
2019-06-08T16:50:32.268Z,48.24
2019-06-08T16:53:02.779Z,46.72
2019-06-08T16:55:32.106Z,47.57
2019-06-08T16:58:02.015Z,41.14
2019-06-08T17:00:36.530Z,38.75
2019-06-08T17:03:02.775Z,35.16
2019-06-08T17:05:31.427Z,35.30
2019-06-08T17:08:00.365Z,35.88
2019-06-08T17:10:29.054Z,38.69
2019-06-08T17:12:57.961Z,41.04
2019-06-08T17:15:28.036Z,40.58
2019-06-08T17:17:57.686Z,42.34
2019-06-08T17:20:26.519Z,42.98
2019-06-08T17:22:55.424Z,45.39
2019-06-08T17:25:24.410Z,50.28
2019-06-08T17:27:55.971Z,53.90
2019-06-08T17:30:27.321Z,58.52
2019-06-08T17:32:58.967Z,61.33
2019-06-08T17:35:27.663Z,58.21
2019-06-08T17:37:56.375Z,58.40
2019-06-08T17:40:25.264Z,56.38
2019-06-08T17:42:55.296Z,52.51
2019-06-08T17:45:24.450Z,48.79
2019-06-08T17:47:53.484Z,48.79
2019-06-08T17:50:22.202Z,49.46
2019-06-08T17:52:52.128Z,47.62
2019-06-08T17:55:24.908Z,47.40
2019-06-08T17:57:55.204Z,47.27
2019-06-08T18:00:25.113Z,49.12
2019-06-08T18:02:57.727Z,49.12
2019-06-08T18:05:28.162Z,47.20
2019-06-08T18:07:57.900Z,47.22
2019-06-08T18:10:27.813Z,46.49
2019-06-08T18:12:58.897Z,46.92
2019-06-08T18:15:28.390Z,45.74
2019-06-08T18:17:58.528Z,45.70
2019-06-08T18:20:28.278Z,46.69
2019-06-08T18:22:57.858Z,45.77
2019-06-08T18:25:28.146Z,46.96
2019-06-08T18:28:06.650Z,48.57
2019-06-08T18:30:27.751Z,48.07
2019-06-08T18:32:58.289Z,48.12
2019-06-08T18:35:27.854Z,49.00
2019-06-08T18:37:57.875Z,50.03
2019-06-08T18:40:27.256Z,53.45
2019-06-08T18:42:58.170Z,56.03
2019-06-08T18:45:29.687Z,58.51
2019-06-08T18:47:58.425Z,59.17
2019-06-08T18:50:28.437Z,60.79
2019-06-08T18:52:57.978Z,61.39
2019-06-08T18:55:28.035Z,61.70
2019-06-08T18:57:57.775Z,61.11
2019-06-08T19:00:39.761Z,62.05
2019-06-08T19:03:09.788Z,62.73
2019-06-08T19:05:45.233Z,63.07
2019-06-08T19:08:13.141Z,64.09
2019-06-08T19:10:42.729Z,65.74
2019-06-08T19:13:12.538Z,67.55
2019-06-08T19:15:44.478Z,68.33
2019-06-08T19:18:13.415Z,70.37
2019-06-08T19:20:47.016Z,72.00
2019-06-08T19:23:14.665Z,73.45
2019-06-08T19:25:49.590Z,75.49
2019-06-08T19:28:35.265Z,77.41
2019-06-08T19:30:51.642Z,77.33
2019-06-08T19:33:20.784Z,77.22
2019-06-08T19:35:53.646Z,77.67
2019-06-08T19:38:20.228Z,77.98
2019-06-08T19:40:50.705Z,78.60
2019-06-08T19:43:22.534Z,79.14
2019-06-08T19:45:52.107Z,79.46
2019-06-08T19:48:21.390Z,80.49
2019-06-08T19:50:54.229Z,81.16
2019-06-08T19:53:21.908Z,81.89
2019-06-08T19:55:53.943Z,82.90
2019-06-08T19:58:21.442Z,83.06
2019-06-08T20:00:54.892Z,83.14
2019-06-08T20:03:23.686Z,83.97
2019-06-08T20:05:53.579Z,84.80
2019-06-08T20:08:22.311Z,86.08
2019-06-08T20:10:52.146Z,86.03
2019-06-08T20:13:23.065Z,86.35
2019-06-08T20:15:57.133Z,86.44
2019-06-08T20:18:22.687Z,86.53
2019-06-08T20:20:54.510Z,86.63
2019-06-08T20:23:23.409Z,87.39
2019-06-08T20:25:53.448Z,86.91
2019-06-08T20:28:28.394Z,87.64
2019-06-08T20:30:57.916Z,87.75
2019-06-08T20:33:27.403Z,87.95
2019-06-08T20:35:58.565Z,89.31
2019-06-08T20:38:38.244Z,88.84
2019-06-08T20:40:57.973Z,89.54
2019-06-08T20:43:38.102Z,89.39
2019-06-08T20:46:08.137Z,89.84
2019-06-08T20:48:44.236Z,91.19
2019-06-08T20:51:19.619Z,90.92
2019-06-08T20:53:52.479Z,91.04
2019-06-08T20:56:21.360Z,91.31
2019-06-08T20:58:54.026Z,92.11
2019-06-08T21:01:23.519Z,92.11
2019-06-08T21:03:52.798Z,92.10
2019-06-08T21:06:21.456Z,92.16
2019-06-08T21:08:51.616Z,92.29
2019-06-08T21:11:20.842Z,93.04
2019-06-08T21:13:52.173Z,93.01
2019-06-08T21:16:20.926Z,93.17
2019-06-08T21:18:50.820Z,93.33
2019-06-08T21:21:22.051Z,94.08
2019-06-08T21:23:54.027Z,94.27
2019-06-08T21:26:21.593Z,94.57
2019-06-08T21:28:52.804Z,96.01
2019-06-08T21:31:28.435Z,95.21
2019-06-08T21:34:00.421Z,95.75
2019-06-08T21:36:27.123Z,96.13
2019-06-08T21:39:01.926Z,96.20
2019-06-08T21:41:29.841Z,96.10
2019-06-08T21:44:01.688Z,97.32
2019-06-08T21:46:30.716Z,97.17
2019-06-08T21:49:00.591Z,97.14
2019-06-08T21:51:29.652Z,98.15
2019-06-08T21:53:59.251Z,98.12
2019-06-08T21:56:29.016Z,98.35
2019-06-08T21:59:00.914Z,98.48
2019-06-08T22:01:30.379Z,99.03
2019-06-08T22:04:02.351Z,99.20
2019-06-08T22:06:31.454Z,99.29
2019-06-08T22:09:02.865Z,99.55
2019-06-08T22:11:37.728Z,100.00
2019-06-08T22:14:07.342Z,100.00
2019-06-08T22:16:42.528Z,99.92
2019-06-08T22:19:11.172Z,100.00
2019-06-08T22:21:39.947Z,100.00
2019-06-08T22:24:08.642Z,100.00
2019-06-08T22:26:38.876Z,100.00
2019-06-08T22:29:07.998Z,100.00
2019-06-08T22:31:38.271Z,100.00
2019-06-08T22:34:07.503Z,100.00
2019-06-08T22:36:37.198Z,100.00
2019-06-08T22:39:08.060Z,100.00
2019-06-08T22:41:37.418Z,100.00
2019-06-08T22:44:08.493Z,100.00
2019-06-08T22:46:38.833Z,100.00
2019-06-08T22:49:10.565Z,100.00
2019-06-08T22:51:40.690Z,100.00
2019-06-08T22:54:10.722Z,100.00
2019-06-08T22:56:40.537Z,100.00
2019-06-08T22:59:10.550Z,100.00
2019-06-08T23:01:39.960Z,100.00
2019-06-08T23:04:11.415Z,100.00
2019-06-08T23:06:42.068Z,100.00
2019-06-08T23:09:11.048Z,100.00
2019-06-08T23:11:42.464Z,100.00
2019-06-08T23:14:14.319Z,100.00
2019-06-08T23:16:43.272Z,100.00
2019-06-08T23:19:17.455Z,100.00
2019-06-08T23:21:47.602Z,100.00
2019-06-08T23:24:18.140Z,100.00
2019-06-08T23:26:49.984Z,100.00
2019-06-08T23:29:20.685Z,100.00
2019-06-08T23:31:53.357Z,100.00
2019-06-08T23:34:27.532Z,100.00
2019-06-08T23:37:00.879Z,100.00
2019-06-08T23:39:28.491Z,100.00
2019-06-08T23:41:57.598Z,100.00
2019-06-08T23:44:28.329Z,100.00
2019-06-08T23:46:58.548Z,100.00
2019-06-08T23:49:27.824Z,100.00
2019-06-08T23:52:02.673Z,100.00
2019-06-08T23:54:32.820Z,100.00
2019-06-08T23:57:02.874Z,100.00
2019-06-08T23:59:32.939Z,100.00
